createdAt,value
2023-03-01T00:01:58.682Z,98180.27
2023-03-01T00:04:29.548Z,98184.67
2023-03-01T00:06:58.645Z,98187.19
2023-03-01T00:09:27.744Z,98184.94
2023-03-01T00:11:57.476Z,98185.46
2023-03-01T00:14:26.445Z,98184.33
2023-03-01T00:16:56.320Z,98185.29
2023-03-01T00:19:25.560Z,98181.60
2023-03-01T00:21:54.869Z,98178.23
2023-03-01T00:24:24.154Z,98176.73
2023-03-01T00:26:57.661Z,98178.11
2023-03-01T00:29:28.002Z,98175.58
2023-03-01T00:31:58.512Z,98176.95
2023-03-01T00:34:27.727Z,98173.69
2023-03-01T00:37:06.585Z,98176.74
2023-03-01T00:39:36.471Z,98175.56
2023-03-01T00:42:06.666Z,98174.71
2023-03-01T00:44:38.009Z,98172.00
2023-03-01T00:47:08.518Z,98172.70
2023-03-01T00:49:38.152Z,98174.27
2023-03-01T00:52:08.048Z,98175.16
2023-03-01T00:54:38.276Z,98179.09
2023-03-01T00:57:09.385Z,98176.31
2023-03-01T00:59:39.361Z,98181.42
2023-03-01T01:02:10.577Z,98180.74
2023-03-01T01:04:40.664Z,98180.58
2023-03-01T01:07:10.720Z,98175.76
2023-03-01T01:09:41.622Z,98174.17
2023-03-01T01:12:12.672Z,98171.25
2023-03-01T01:14:43.880Z,98167.80
2023-03-01T01:17:14.608Z,98171.69
2023-03-01T01:19:46.712Z,98169.27
2023-03-01T01:22:16.187Z,98171.13
2023-03-01T01:24:47.094Z,98167.16
2023-03-01T01:27:17.691Z,98166.13
2023-03-01T01:29:46.612Z,98162.23
2023-03-01T01:32:15.924Z,98160.02
2023-03-01T01:34:47.896Z,98158.63
2023-03-01T01:37:16.802Z,98157.39
2023-03-01T01:39:45.968Z,98158.61
2023-03-01T01:42:19.912Z,98157.05
2023-03-01T01:44:50.473Z,98162.31
2023-03-01T01:47:24.101Z,98162.46
2023-03-01T01:49:58.590Z,98157.30
2023-03-01T01:52:33.604Z,98155.38
2023-03-01T01:55:14.095Z,98152.07
2023-03-01T01:57:56.125Z,98150.65
2023-03-01T02:00:28.158Z,98151.45
2023-03-01T02:03:06.648Z,98150.19
2023-03-01T02:05:54.986Z,98148.77
2023-03-01T02:08:28.832Z,98147.02
2023-03-01T02:11:01.083Z,98143.86
2023-03-01T02:13:32.224Z,98145.88
2023-03-01T02:16:13.333Z,98140.69
2023-03-01T02:18:44.995Z,98139.08
2023-03-01T02:21:30.916Z,98137.17
2023-03-01T02:24:12.160Z,98132.50
2023-03-01T02:26:52.773Z,98135.73
2023-03-01T02:29:25.246Z,98134.48
2023-03-01T02:31:58.210Z,98134.95
2023-03-01T02:34:31.411Z,98131.16
2023-03-01T02:37:11.012Z,98130.59
2023-03-01T02:39:46.574Z,98132.45
2023-03-01T02:42:26.888Z,98127.96
2023-03-01T02:44:56.150Z,98127.42
2023-03-01T02:47:25.533Z,98133.37
2023-03-01T02:49:54.621Z,98130.27
2023-03-01T02:52:45.790Z,98127.48
2023-03-01T02:55:18.101Z,98123.87
2023-03-01T02:57:53.460Z,98119.04
2023-03-01T03:00:29.192Z,98114.72
2023-03-01T03:02:59.724Z,98118.09
2023-03-01T03:05:32.323Z,98116.33
2023-03-01T03:08:04.336Z,98117.34
2023-03-01T03:10:41.024Z,98119.53
2023-03-01T03:13:16.195Z,98116.42
2023-03-01T03:15:46.965Z,98115.73
2023-03-01T03:18:18.852Z,98113.45
2023-03-01T03:20:54.765Z,98113.43
2023-03-01T03:23:25.637Z,98112.21
2023-03-01T03:25:55.888Z,98113.06
2023-03-01T03:28:25.892Z,98109.33
2023-03-01T03:30:55.510Z,98108.50
2023-03-01T03:33:25.714Z,98107.81
2023-03-01T03:35:54.528Z,98107.95
2023-03-01T03:38:25.524Z,98106.56
2023-03-01T03:41:06.485Z,98106.71
2023-03-01T03:43:39.002Z,98108.60
2023-03-01T03:46:09.843Z,98109.08
2023-03-01T03:48:47.115Z,98109.41
2023-03-01T03:51:18.285Z,98107.36
2023-03-01T03:53:47.624Z,98104.61
2023-03-01T03:56:16.454Z,98104.40
2023-03-01T03:58:47.342Z,98103.98
2023-03-01T04:01:17.572Z,98099.15
2023-03-01T04:03:48.422Z,98096.75
2023-03-01T04:06:17.890Z,98101.54
2023-03-01T04:08:48.251Z,98100.20
2023-03-01T04:11:30.615Z,98105.19
2023-03-01T04:14:00.754Z,98099.38
2023-03-01T04:16:30.475Z,98099.52
2023-03-01T04:19:01.380Z,98101.72
2023-03-01T04:21:31.832Z,98100.84
2023-03-01T04:24:05.059Z,98102.03
2023-03-01T04:26:35.194Z,98099.80
2023-03-01T04:29:04.947Z,98100.13
2023-03-01T04:31:35.708Z,98099.95
2023-03-01T04:34:05.246Z,98104.20
2023-03-01T04:36:37.080Z,98106.23
2023-03-01T04:39:13.904Z,98106.04
2023-03-01T04:41:44.941Z,98105.14
2023-03-01T04:44:14.341Z,98103.27
2023-03-01T04:46:44.037Z,98104.62
2023-03-01T04:49:13.326Z,98106.99
2023-03-01T04:51:42.121Z,98108.48
2023-03-01T04:54:11.916Z,98108.61
2023-03-01T04:56:41.531Z,98111.96
2023-03-01T04:59:11.352Z,98110.70
2023-03-01T05:01:41.262Z,98111.34
2023-03-01T05:04:14.740Z,98114.42
2023-03-01T05:06:43.965Z,98114.73
2023-03-01T05:09:13.271Z,98112.32
2023-03-01T05:11:42.774Z,98118.63
2023-03-01T05:14:12.974Z,98122.73
2023-03-01T05:16:42.085Z,98124.42
2023-03-01T05:19:17.523Z,98132.95
2023-03-01T05:22:05.230Z,98133.94
2023-03-01T05:24:36.464Z,98134.11
2023-03-01T05:27:05.901Z,98135.44
2023-03-01T05:29:36.242Z,98134.90
2023-03-01T05:32:05.896Z,98130.25
2023-03-01T05:34:37.523Z,98134.16
2023-03-01T05:37:06.699Z,98132.09
2023-03-01T05:39:35.898Z,98133.47
2023-03-01T05:42:05.720Z,98132.86
2023-03-01T05:44:34.690Z,98134.97
2023-03-01T05:47:03.473Z,98129.88
2023-03-01T05:49:33.388Z,98136.09
2023-03-01T05:52:02.279Z,98135.84
2023-03-01T05:54:31.480Z,98137.76
2023-03-01T05:57:00.179Z,98140.52
2023-03-01T05:59:29.158Z,98141.04
2023-03-01T06:01:58.042Z,98142.39
2023-03-01T06:04:26.979Z,98144.22
2023-03-01T06:06:55.926Z,98145.41
2023-03-01T06:09:27.287Z,98144.27
2023-03-01T06:11:56.172Z,98142.89
2023-03-01T06:14:25.375Z,98145.45
2023-03-01T06:16:54.163Z,98141.54
2023-03-01T06:19:22.957Z,98136.89
2023-03-01T06:21:52.144Z,98134.73
2023-03-01T06:24:21.137Z,98132.89
2023-03-01T06:26:50.332Z,98134.52
2023-03-01T06:29:19.127Z,98132.41
2023-03-01T06:31:48.450Z,98134.92
2023-03-01T06:34:17.411Z,98136.98
2023-03-01T06:36:47.738Z,98136.73
2023-03-01T06:39:17.958Z,98132.60
2023-03-01T06:41:48.581Z,98134.01
2023-03-01T06:44:17.592Z,98133.57
2023-03-01T06:46:46.710Z,98137.98
2023-03-01T06:49:17.517Z,98134.27
2023-03-01T06:51:47.637Z,98138.08
2023-03-01T06:54:19.086Z,98140.34
2023-03-01T06:56:51.347Z,98135.91
2023-03-01T06:59:20.848Z,98135.97
2023-03-01T07:01:49.779Z,98137.38
2023-03-01T07:04:18.738Z,98135.49
2023-03-01T07:06:55.511Z,98136.19
2023-03-01T07:09:25.256Z,98137.00
2023-03-01T07:11:56.158Z,98136.31
2023-03-01T07:14:28.938Z,98130.40
2023-03-01T07:16:58.551Z,98128.42
2023-03-01T07:19:27.755Z,98126.45
2023-03-01T07:21:57.157Z,98131.69
2023-03-01T07:24:26.650Z,98129.98
2023-03-01T07:26:55.231Z,98127.48
2023-03-01T07:29:24.222Z,98126.23
2023-03-01T07:31:52.933Z,98126.29
2023-03-01T07:34:22.110Z,98128.70
2023-03-01T07:36:51.199Z,98123.73
2023-03-01T07:39:20.510Z,98119.54
2023-03-01T07:41:49.189Z,98123.16
2023-03-01T07:44:23.614Z,98123.70
2023-03-01T07:46:57.528Z,98123.48
2023-03-01T07:49:27.873Z,98120.67
2023-03-01T07:51:56.624Z,98118.80
2023-03-01T07:54:25.727Z,98118.70
2023-03-01T07:56:56.054Z,98121.30
2023-03-01T07:59:30.249Z,98114.55
2023-03-01T08:01:59.454Z,98116.48
2023-03-01T08:04:29.117Z,98115.15
2023-03-01T08:06:58.064Z,98111.54
2023-03-01T08:09:28.782Z,98113.38
2023-03-01T08:12:00.652Z,98106.13
2023-03-01T08:14:29.541Z,98105.80
2023-03-01T08:16:58.578Z,98109.15
2023-03-01T08:19:29.359Z,98108.82
2023-03-01T08:21:59.493Z,98110.73
2023-03-01T08:24:28.580Z,98106.05
2023-03-01T08:26:57.791Z,98104.25
2023-03-01T08:29:27.387Z,98098.17
2023-03-01T08:31:56.181Z,98095.91
2023-03-01T08:34:25.370Z,98096.87
2023-03-01T08:36:54.164Z,98094.19
2023-03-01T08:39:23.072Z,98092.77
2023-03-01T08:41:51.845Z,98093.33
2023-03-01T08:44:22.263Z,98093.45
2023-03-01T08:46:52.697Z,98095.09
2023-03-01T08:49:21.930Z,98085.83
2023-03-01T08:51:50.681Z,98078.61
2023-03-01T08:54:22.503Z,98076.55
2023-03-01T08:56:51.429Z,98078.33
2023-03-01T08:59:20.928Z,98076.66
2023-03-01T09:01:49.778Z,98076.30
2023-03-01T09:04:18.616Z,98074.38
2023-03-01T09:06:47.707Z,98072.48
2023-03-01T09:09:18.567Z,98070.54
2023-03-01T09:11:47.885Z,98069.79
2023-03-01T09:14:16.634Z,98067.02
2023-03-01T09:16:46.498Z,98064.67
2023-03-01T09:19:15.660Z,98062.31
2023-03-01T09:21:53.690Z,98060.20
2023-03-01T09:24:24.901Z,98057.73
2023-03-01T09:26:57.677Z,98048.11
2023-03-01T09:29:27.210Z,98047.36
2023-03-01T09:31:57.102Z,98042.48
2023-03-01T09:34:25.879Z,98042.09
2023-03-01T09:36:54.775Z,98036.09
2023-03-01T09:39:23.610Z,98030.60
2023-03-01T09:42:05.513Z,98028.52
2023-03-01T09:45:02.539Z,98026.59
2023-03-01T09:47:38.171Z,98025.66
2023-03-01T09:50:19.668Z,98022.14
2023-03-01T09:53:10.560Z,98019.60
2023-03-01T09:55:56.429Z,98018.54
2023-03-01T09:58:49.409Z,98016.88
2023-03-01T10:01:36.827Z,98009.62
2023-03-01T10:04:51.880Z,98006.65
2023-03-01T10:07:40.240Z,98004.62
2023-03-01T10:10:16.053Z,98002.98
2023-03-01T10:12:45.954Z,98007.30
2023-03-01T10:15:19.515Z,98007.05
2023-03-01T10:17:57.296Z,97997.80
2023-03-01T10:20:31.418Z,97989.82
2023-03-01T10:23:00.510Z,97988.64
2023-03-01T10:25:29.093Z,97986.48
2023-03-01T10:28:07.918Z,97991.39
2023-03-01T10:30:43.288Z,97985.72
2023-03-01T10:33:33.755Z,97977.25
2023-03-01T10:36:03.632Z,97976.05
2023-03-01T10:38:49.725Z,97973.36
2023-03-01T10:41:18.547Z,97968.04
2023-03-01T10:44:01.391Z,97968.71
2023-03-01T10:46:31.748Z,97970.61
2023-03-01T10:49:23.434Z,97969.73
2023-03-01T10:51:54.452Z,97962.38
2023-03-01T10:54:33.293Z,97958.27
2023-03-01T10:57:05.552Z,97949.02
2023-03-01T10:59:36.794Z,97953.54
2023-03-01T11:02:26.530Z,97951.33
2023-03-01T11:05:31.723Z,97946.55
2023-03-01T11:08:02.923Z,97940.48
2023-03-01T11:10:37.486Z,97937.16
2023-03-01T11:13:14.364Z,97932.84
2023-03-01T11:15:43.991Z,97932.69
2023-03-01T11:18:34.005Z,97930.91
2023-03-01T11:21:10.034Z,97931.44
2023-03-01T11:23:41.360Z,97934.01
2023-03-01T11:26:12.886Z,97926.85
2023-03-01T11:28:44.571Z,97917.90
2023-03-01T11:31:14.552Z,97915.73
2023-03-01T11:33:56.888Z,97908.89
2023-03-01T11:36:44.106Z,97904.23
2023-03-01T11:39:42.101Z,97906.08
2023-03-01T11:42:46.351Z,97904.64
2023-03-01T11:45:15.307Z,97901.67
2023-03-01T11:48:03.020Z,97897.14
2023-03-01T11:50:31.911Z,97898.43
2023-03-01T11:53:27.540Z,97901.80
2023-03-01T11:56:03.088Z,97899.61
2023-03-01T11:58:41.488Z,97893.00
2023-03-01T12:01:28.624Z,97892.80
2023-03-01T12:04:08.597Z,97886.34
2023-03-01T12:06:53.122Z,97881.41
2023-03-01T12:09:48.693Z,97879.12
2023-03-01T12:12:30.215Z,97874.79
2023-03-01T12:15:27.178Z,97875.09
2023-03-01T12:18:18.723Z,97876.65
2023-03-01T12:21:04.707Z,97874.05
2023-03-01T12:23:36.343Z,97876.13
2023-03-01T12:26:20.502Z,97871.77
2023-03-01T12:29:09.444Z,97867.52
2023-03-01T12:31:38.184Z,97869.40
2023-03-01T12:34:12.956Z,97865.95
2023-03-01T12:36:41.860Z,97867.98
2023-03-01T12:39:10.641Z,97866.70
2023-03-01T12:42:02.274Z,97863.80
2023-03-01T12:45:00.133Z,97857.93
2023-03-01T12:47:34.239Z,97856.02
2023-03-01T12:50:19.419Z,97856.36
2023-03-01T12:52:53.678Z,97853.59
2023-03-01T12:55:41.253Z,97852.57
2023-03-01T12:58:55.702Z,97848.54
2023-03-01T13:02:01.572Z,97843.76
2023-03-01T13:04:48.693Z,97842.81
2023-03-01T13:07:26.005Z,97836.69
2023-03-01T13:10:22.107Z,97836.02
2023-03-01T13:12:51.004Z,97838.72
2023-03-01T13:15:40.797Z,97840.56
2023-03-01T13:18:23.413Z,97839.04
2023-03-01T13:20:54.672Z,97832.19
2023-03-01T13:23:23.964Z,97829.90
2023-03-01T13:25:59.287Z,97830.38
2023-03-01T13:28:46.292Z,97826.09
2023-03-01T13:31:21.439Z,97823.98
2023-03-01T13:33:51.134Z,97825.45
2023-03-01T13:36:29.241Z,97821.02
2023-03-01T13:39:00.703Z,97818.80
2023-03-01T13:41:44.327Z,97820.37
2023-03-01T13:44:37.687Z,97815.61
2023-03-01T13:47:19.802Z,97814.87
2023-03-01T13:50:02.522Z,97814.45
2023-03-01T13:52:52.198Z,97811.42
2023-03-01T13:55:38.912Z,97814.52
2023-03-01T13:58:20.902Z,97815.41
2023-03-01T14:01:02.312Z,97814.11
2023-03-01T14:03:33.518Z,97814.76
2023-03-01T14:06:14.672Z,97812.42
2023-03-01T14:08:47.203Z,97813.95
2023-03-01T14:11:34.801Z,97810.73
2023-03-01T14:14:06.460Z,97810.10
2023-03-01T14:16:50.500Z,97804.71
2023-03-01T14:19:33.575Z,97804.52
2023-03-01T14:22:24.227Z,97804.02
2023-03-01T14:25:07.038Z,97804.01
2023-03-01T14:27:40.741Z,97805.69
2023-03-01T14:30:26.896Z,97801.66
2023-03-01T14:33:01.302Z,97802.71
2023-03-01T14:35:37.559Z,97803.02
2023-03-01T14:38:06.309Z,97799.01
2023-03-01T14:40:38.590Z,97798.44
2023-03-01T14:43:13.666Z,97795.34
2023-03-01T14:45:50.120Z,97796.70
2023-03-01T14:48:20.614Z,97794.36
2023-03-01T14:50:50.637Z,97792.74
2023-03-01T14:53:25.870Z,97793.60
2023-03-01T14:56:05.447Z,97791.20
2023-03-01T14:58:35.541Z,97788.79
2023-03-01T15:01:05.331Z,97788.94
2023-03-01T15:03:46.517Z,97786.21
2023-03-01T15:06:24.024Z,97785.09
2023-03-01T15:08:56.132Z,97784.14
2023-03-01T15:11:33.267Z,97787.38
2023-03-01T15:14:02.066Z,97783.99
2023-03-01T15:16:33.256Z,97786.06
2023-03-01T15:19:05.658Z,97785.39
2023-03-01T15:21:38.856Z,97782.17
2023-03-01T15:24:20.843Z,97778.14
2023-03-01T15:27:03.034Z,97774.64
2023-03-01T15:29:34.777Z,97777.79
2023-03-01T15:32:24.217Z,97776.77
2023-03-01T15:34:53.302Z,97776.17
2023-03-01T15:37:54.739Z,97780.39
2023-03-01T15:40:32.756Z,97782.17
2023-03-01T15:43:04.071Z,97781.40
2023-03-01T15:45:39.833Z,97782.30
2023-03-01T15:48:21.659Z,97782.16
2023-03-01T15:50:58.913Z,97785.85
2023-03-01T15:53:29.744Z,97783.47
2023-03-01T15:55:58.643Z,97785.23
2023-03-01T15:58:27.737Z,97784.64
2023-03-01T16:01:02.485Z,97783.16
2023-03-01T16:03:31.468Z,97785.59
2023-03-01T16:06:00.487Z,97789.50
2023-03-01T16:08:29.448Z,97792.98
2023-03-01T16:10:58.024Z,97797.73
2023-03-01T16:13:28.444Z,97799.89
2023-03-01T16:15:58.351Z,97802.45
2023-03-01T16:18:27.049Z,97807.31
2023-03-01T16:20:55.844Z,97804.04
2023-03-01T16:23:26.288Z,97802.30
2023-03-01T16:25:54.854Z,97808.27
2023-03-01T16:28:23.431Z,97808.24
2023-03-01T16:30:52.202Z,97806.79
2023-03-01T16:33:27.637Z,97806.74
2023-03-01T16:36:01.460Z,97809.74
2023-03-01T16:38:32.934Z,97810.55
2023-03-01T16:41:02.018Z,97815.39
2023-03-01T16:43:31.744Z,97812.82
2023-03-01T16:46:00.799Z,97814.38
2023-03-01T16:48:29.605Z,97816.44
2023-03-01T16:51:02.294Z,97819.59
2023-03-01T16:53:31.390Z,97819.25
2023-03-01T16:56:00.382Z,97819.61
2023-03-01T16:58:29.269Z,97821.81
2023-03-01T17:00:58.095Z,97820.19
2023-03-01T17:03:27.649Z,97818.92
2023-03-01T17:05:56.770Z,97819.78
2023-03-01T17:08:25.548Z,97818.36
2023-03-01T17:10:54.331Z,97820.09
2023-03-01T17:13:25.251Z,97818.04
2023-03-01T17:15:53.850Z,97820.29
2023-03-01T17:18:22.748Z,97817.42
2023-03-01T17:20:51.532Z,97818.23
2023-03-01T17:23:20.529Z,97818.66
2023-03-01T17:25:50.337Z,97816.66
2023-03-01T17:28:19.020Z,97813.95
2023-03-01T17:30:48.319Z,97815.48
2023-03-01T17:33:18.070Z,97813.55
2023-03-01T17:35:47.682Z,97813.70
2023-03-01T17:38:16.830Z,97812.94
2023-03-01T17:40:49.307Z,97812.69
2023-03-01T17:43:19.025Z,97812.16
2023-03-01T17:45:52.603Z,97808.69
2023-03-01T17:48:21.940Z,97810.23
2023-03-01T17:50:50.602Z,97808.39
2023-03-01T17:53:19.396Z,97809.26
2023-03-01T17:55:54.350Z,97812.63
2023-03-01T17:58:23.209Z,97809.89
2023-03-01T18:00:52.088Z,97811.39
2023-03-01T18:03:22.121Z,97810.88
2023-03-01T18:05:51.213Z,97812.22
2023-03-01T18:08:19.707Z,97808.92
2023-03-01T18:10:48.603Z,97807.13
2023-03-01T18:13:17.171Z,97808.39
2023-03-01T18:15:45.674Z,97811.31
2023-03-01T18:18:14.334Z,97808.63
2023-03-01T18:20:42.927Z,97806.93
2023-03-01T18:23:11.505Z,97805.92
2023-03-01T18:25:40.696Z,97809.73
2023-03-01T18:28:09.185Z,97813.31
2023-03-01T18:30:38.034Z,97814.07
2023-03-01T18:33:06.760Z,97812.44
2023-03-01T18:35:39.560Z,97817.17
2023-03-01T18:38:08.219Z,97821.64
2023-03-01T18:40:36.819Z,97826.04
2023-03-01T18:43:05.395Z,97825.27
2023-03-01T18:45:33.969Z,97825.59
2023-03-01T18:48:03.066Z,97825.11
2023-03-01T18:50:32.163Z,97827.29
2023-03-01T18:53:00.796Z,97825.92
2023-03-01T18:55:29.433Z,97827.81
2023-03-01T18:57:58.224Z,97827.69
2023-03-01T19:00:27.211Z,97825.52
2023-03-01T19:02:55.757Z,97831.38
2023-03-01T19:05:24.585Z,97831.38
2023-03-01T19:07:53.687Z,97830.38
2023-03-01T19:10:22.371Z,97834.03
2023-03-01T19:12:51.152Z,97834.34
2023-03-01T19:15:20.042Z,97834.50
2023-03-01T19:17:48.520Z,97831.89
2023-03-01T19:20:17.412Z,97832.32
2023-03-01T19:22:45.996Z,97830.67
2023-03-01T19:25:14.679Z,97831.20
2023-03-01T19:27:43.365Z,97834.52
2023-03-01T19:30:12.470Z,97834.88
2023-03-01T19:32:40.939Z,97836.07
2023-03-01T19:35:09.931Z,97840.46
2023-03-01T19:37:38.518Z,97841.31
2023-03-01T19:40:08.550Z,97841.34
2023-03-01T19:42:37.218Z,97843.52
2023-03-01T19:45:06.724Z,97844.67
2023-03-01T19:47:35.201Z,97842.07
2023-03-01T19:50:04.093Z,97841.03
2023-03-01T19:52:32.681Z,97840.28
2023-03-01T19:55:09.475Z,97844.04
2023-03-01T19:57:38.642Z,97843.11
2023-03-01T20:00:08.351Z,97843.45
2023-03-01T20:02:45.685Z,97842.19
2023-03-01T20:05:14.429Z,97843.09
2023-03-01T20:07:44.585Z,97842.33
2023-03-01T20:10:14.056Z,97841.52
2023-03-01T20:12:42.643Z,97837.39
2023-03-01T20:15:11.630Z,97840.17
2023-03-01T20:17:40.625Z,97839.95
2023-03-01T20:20:10.391Z,97842.39
2023-03-01T20:22:39.325Z,97840.48
2023-03-01T20:25:09.266Z,97846.85
2023-03-01T20:27:38.341Z,97842.39
2023-03-01T20:30:08.053Z,97840.90
2023-03-01T20:32:36.888Z,97841.08
2023-03-01T20:35:06.251Z,97842.95
2023-03-01T20:37:35.025Z,97842.85
2023-03-01T20:40:04.765Z,97840.48
2023-03-01T20:42:33.328Z,97842.09
2023-03-01T20:45:03.038Z,97842.23
2023-03-01T20:47:31.821Z,97843.71
2023-03-01T20:50:02.240Z,97844.83
2023-03-01T20:52:39.289Z,97842.99
2023-03-01T20:55:11.915Z,97842.08
2023-03-01T20:57:40.798Z,97838.75
2023-03-01T21:00:10.680Z,97837.08
2023-03-01T21:02:39.701Z,97836.62
2023-03-01T21:05:09.114Z,97833.63
2023-03-01T21:07:37.788Z,97835.58
2023-03-01T21:10:07.014Z,97835.21
2023-03-01T21:12:35.567Z,97837.61
2023-03-01T21:15:05.587Z,97836.20
2023-03-01T21:17:34.377Z,97840.98
2023-03-01T21:20:04.810Z,97841.91
2023-03-01T21:22:35.226Z,97843.13
2023-03-01T21:25:04.416Z,97843.92
2023-03-01T21:27:38.231Z,97842.88
2023-03-01T21:30:07.562Z,97846.02
2023-03-01T21:32:36.551Z,97845.98
2023-03-01T21:35:06.035Z,97847.20
2023-03-01T21:37:35.235Z,97851.91
2023-03-01T21:40:06.704Z,97847.42
2023-03-01T21:42:37.061Z,97844.73
2023-03-01T21:45:06.816Z,97839.39
2023-03-01T21:47:36.488Z,97838.36
2023-03-01T21:50:09.011Z,97837.98
2023-03-01T21:52:37.589Z,97833.39
2023-03-01T21:55:07.491Z,97835.86
2023-03-01T21:57:43.962Z,97831.73
2023-03-01T22:00:17.254Z,97831.95
2023-03-01T22:02:46.167Z,97830.70
2023-03-01T22:05:15.360Z,97828.84
2023-03-01T22:07:44.130Z,97828.33
2023-03-01T22:10:13.026Z,97829.63
2023-03-01T22:12:41.911Z,97828.27
2023-03-01T22:15:11.018Z,97825.55
2023-03-01T22:17:39.997Z,97826.51
2023-03-01T22:20:09.599Z,97826.97
2023-03-01T22:22:38.706Z,97828.57
2023-03-01T22:25:09.977Z,97827.16
2023-03-01T22:27:39.250Z,97828.02
2023-03-01T22:30:11.234Z,97824.07
2023-03-01T22:32:40.823Z,97823.00
2023-03-01T22:35:11.059Z,97823.45
2023-03-01T22:37:40.364Z,97821.70
2023-03-01T22:40:10.307Z,97824.41
2023-03-01T22:42:39.145Z,97824.06
2023-03-01T22:45:08.658Z,97824.25
2023-03-01T22:47:40.625Z,97824.46
2023-03-01T22:50:15.416Z,97820.48
2023-03-01T22:52:44.750Z,97824.18
2023-03-01T22:55:13.870Z,97822.80
2023-03-01T22:57:43.157Z,97827.44
2023-03-01T23:00:13.586Z,97827.55
2023-03-01T23:02:42.897Z,97829.11
2023-03-01T23:05:11.969Z,97827.19
2023-03-01T23:07:41.282Z,97826.20
2023-03-01T23:10:12.595Z,97824.73
2023-03-01T23:12:42.111Z,97831.53
2023-03-01T23:15:11.932Z,97830.17
2023-03-01T23:17:40.836Z,97830.54
2023-03-01T23:20:11.102Z,97827.63
2023-03-01T23:22:39.922Z,97828.59
2023-03-01T23:25:15.681Z,97828.98
2023-03-01T23:27:44.673Z,97826.13
2023-03-01T23:30:13.963Z,97822.50
2023-03-01T23:32:43.509Z,97824.02
2023-03-01T23:35:13.085Z,97824.14
2023-03-01T23:37:41.771Z,97825.49
2023-03-01T23:40:12.567Z,97827.62
2023-03-01T23:42:41.904Z,97824.17
2023-03-01T23:45:11.340Z,97827.68
2023-03-01T23:47:40.157Z,97822.48
2023-03-01T23:50:09.856Z,97821.31
2023-03-01T23:52:41.984Z,97821.20
2023-03-01T23:55:15.524Z,97817.81
2023-03-01T23:57:44.462Z,97820.29
